createdAt,value
2018-02-05T00:00:05.133Z,29
2018-02-05T00:02:06.190Z,29.1
2018-02-05T00:04:06.024Z,29.2
2018-02-05T00:06:05.738Z,29
2018-02-05T00:08:05.637Z,29
2018-02-05T00:10:05.878Z,29
2018-02-05T00:12:10.902Z,29
2018-02-05T00:14:05.964Z,29
2018-02-05T00:16:05.808Z,29
2018-02-05T00:18:05.827Z,29.2
2018-02-05T00:20:05.587Z,29
2018-02-05T00:22:05.344Z,29
2018-02-05T00:24:10.239Z,29
2018-02-05T00:26:05.330Z,29
2018-02-05T00:28:05.110Z,32.6
2018-02-05T00:30:05.951Z,32.9
2018-02-05T00:32:05.764Z,34.2
2018-02-05T00:34:05.556Z,34.6
2018-02-05T00:36:05.878Z,34.6
2018-02-05T00:38:05.622Z,34.6
2018-02-05T00:40:05.403Z,34.7
2018-02-05T00:42:05.286Z,34.7
2018-02-05T00:44:10.134Z,34.8
2018-02-05T00:46:05.405Z,34.7
2018-02-05T00:48:07.704Z,34.7
2018-02-05T00:50:07.978Z,34.6
2018-02-05T00:52:05.735Z,32
2018-02-05T00:54:05.508Z,33.1
2018-02-05T00:56:05.609Z,33.2
2018-02-05T00:58:08.393Z,33.3
2018-02-05T01:00:05.125Z,33.4
2018-02-05T01:02:05.902Z,33.5
2018-02-05T01:04:05.598Z,33.4
2018-02-05T01:06:05.349Z,33.4
2018-02-05T01:08:05.227Z,33.5
2018-02-05T01:10:05.987Z,33.6
2018-02-05T01:12:05.735Z,33.6
2018-02-05T01:14:13.105Z,33.6
2018-02-05T01:16:05.870Z,33.6
2018-02-05T01:18:05.852Z,33.6
2018-02-05T01:20:05.601Z,33.7
2018-02-05T01:22:05.334Z,33.6
2018-02-05T01:24:05.087Z,33.7
2018-02-05T01:26:05.851Z,33.6
2018-02-05T01:28:10.622Z,33.6
2018-02-05T01:30:05.437Z,33.6
2018-02-05T01:32:05.953Z,33.7
2018-02-05T01:34:05.796Z,33.6
2018-02-05T01:36:07.624Z,33.6
2018-02-05T01:38:06.282Z,33.6
2018-02-05T01:40:06.008Z,33.5
2018-02-05T01:42:05.279Z,33.5
2018-02-05T01:44:06.357Z,33.6
2018-02-05T01:46:05.150Z,33.5
2018-02-05T01:48:05.560Z,33.6
2018-02-05T01:50:08.370Z,33.6
2018-02-05T01:52:10.288Z,33.6
2018-02-05T01:54:05.575Z,33.6
2018-02-05T01:56:05.356Z,33.7
2018-02-05T01:58:05.093Z,33.8
2018-02-05T02:00:05.348Z,33.7
2018-02-05T02:02:05.116Z,33.7
2018-02-05T02:04:10.950Z,33.8
2018-02-05T02:06:05.697Z,33.7
2018-02-05T02:08:05.777Z,33.8
2018-02-05T02:10:05.550Z,33.8
2018-02-05T02:12:05.301Z,33.8
2018-02-05T02:14:05.338Z,33.8
2018-02-05T02:16:05.170Z,33.8
2018-02-05T02:18:05.096Z,33.8
2018-02-05T02:20:06.172Z,33.8
2018-02-05T02:22:05.801Z,33.8
2018-02-05T02:24:08.101Z,33.8
2018-02-05T02:26:06.193Z,33.8
2018-02-05T02:28:05.956Z,33.8
2018-02-05T02:30:05.712Z,33.8
2018-02-05T02:32:08.149Z,33.8
2018-02-05T02:34:05.917Z,33.8
2018-02-05T02:36:05.671Z,33.8
2018-02-05T02:38:05.523Z,33.7
2018-02-05T02:40:05.231Z,33.7
2018-02-05T02:42:08.576Z,33.6
2018-02-05T02:44:05.932Z,33.7
2018-02-05T02:46:07.122Z,33.7
2018-02-05T02:48:08.421Z,33.7
2018-02-05T02:50:07.800Z,33.7
2018-02-05T02:52:05.578Z,33.7
2018-02-05T02:54:05.701Z,33.5
2018-02-05T02:56:10.513Z,33.6
2018-02-05T02:58:05.237Z,33.6
2018-02-05T03:00:06.022Z,33.6
2018-02-05T03:02:11.134Z,33.3
2018-02-05T03:04:05.947Z,33.5
2018-02-05T03:06:05.702Z,33.5
2018-02-05T03:08:08.019Z,33.5
2018-02-05T03:10:05.710Z,33.2
2018-02-05T03:12:05.447Z,33.6
2018-02-05T03:14:10.565Z,33.5
2018-02-05T03:16:05.997Z,33.2
2018-02-05T03:18:05.941Z,33.2
2018-02-05T03:20:05.983Z,33.5
2018-02-05T03:22:08.275Z,33.3
2018-02-05T03:24:06.157Z,33.3
2018-02-05T03:26:06.274Z,33.5
2018-02-05T03:28:05.145Z,33.3
2018-02-05T03:30:08.472Z,33.2
2018-02-05T03:32:08.141Z,33.2
2018-02-05T03:34:05.890Z,33.2
2018-02-05T03:36:05.578Z,33.2
2018-02-05T03:38:05.368Z,33.2
2018-02-05T03:40:10.226Z,33.2
2018-02-05T03:42:08.826Z,33.2
2018-02-05T03:44:08.180Z,33.2
2018-02-05T03:46:05.960Z,33.2
2018-02-05T03:48:05.687Z,33.2
2018-02-05T03:50:05.527Z,33.2
2018-02-05T03:52:07.832Z,33.2
2018-02-05T03:54:08.135Z,33.2
2018-02-05T03:56:06.201Z,33.2
2018-02-05T03:58:13.863Z,33.2
2018-02-05T04:00:05.711Z,33.2
2018-02-05T04:02:06.367Z,33.2
2018-02-05T04:04:05.165Z,33.2
2018-02-05T04:06:05.998Z,33.2
2018-02-05T04:08:05.734Z,33.2
2018-02-05T04:10:06.111Z,33.2
2018-02-05T04:12:05.453Z,33.2
2018-02-05T04:14:05.206Z,33.2
2018-02-05T04:16:05.154Z,33.2
2018-02-05T04:18:05.129Z,33.2
2018-02-05T04:20:05.913Z,33.1
2018-02-05T04:22:05.622Z,33.1
2018-02-05T04:24:05.437Z,33
2018-02-05T04:26:05.226Z,33
2018-02-05T04:28:15.655Z,32.9
2018-02-05T04:30:05.675Z,7.5
2018-02-05T04:32:05.461Z,33
2018-02-05T04:34:05.686Z,33
2018-02-05T04:36:05.514Z,33.1
2018-02-05T04:38:13.241Z,33.1
2018-02-05T04:40:05.970Z,33.1
2018-02-05T04:42:05.723Z,33.1
2018-02-05T04:44:08.363Z,33.1
2018-02-05T04:46:05.636Z,33.2
2018-02-05T04:48:07.875Z,33.1
2018-02-05T04:50:10.935Z,33.1
2018-02-05T04:52:08.226Z,33.1
2018-02-05T04:54:09.546Z,33.1
2018-02-05T04:56:05.322Z,33
2018-02-05T04:58:08.169Z,33
2018-02-05T05:00:06.059Z,33.1
2018-02-05T05:02:06.160Z,33.1
2018-02-05T05:04:10.999Z,33.1
2018-02-05T05:06:05.288Z,33.1
2018-02-05T05:08:07.647Z,33.1
2018-02-05T05:10:13.562Z,33.1
2018-02-05T05:12:05.265Z,33
2018-02-05T05:14:08.547Z,32.9
2018-02-05T05:16:05.275Z,33
2018-02-05T05:18:05.199Z,33.1
2018-02-05T05:20:06.241Z,33
2018-02-05T05:22:05.034Z,33
2018-02-05T05:24:10.813Z,32.7
2018-02-05T05:26:05.782Z,32.9
2018-02-05T05:28:05.520Z,33
2018-02-05T05:30:05.309Z,33.2
2018-02-05T05:32:07.922Z,33.2
2018-02-05T05:34:06.006Z,33.2
2018-02-05T05:36:07.388Z,33.2
2018-02-05T05:38:07.896Z,33.4
2018-02-05T05:40:05.162Z,33.6
2018-02-05T05:42:05.951Z,33.4
2018-02-05T05:44:06.062Z,33.6
2018-02-05T05:46:05.824Z,33.2
2018-02-05T05:48:06.723Z,33.4
2018-02-05T05:50:11.743Z,33.4
2018-02-05T05:52:05.624Z,33.6
2018-02-05T05:54:05.879Z,33.2
2018-02-05T05:56:05.621Z,28.3
2018-02-05T05:58:05.388Z,34.1
2018-02-05T06:00:05.240Z,34
2018-02-05T06:02:08.875Z,27.9
2018-02-05T06:04:10.698Z,27.9
2018-02-05T06:06:05.962Z,27.9
2018-02-05T06:08:05.799Z,28
2018-02-05T06:10:08.282Z,28.1
2018-02-05T06:12:06.022Z,28.1
2018-02-05T06:14:06.051Z,28
2018-02-05T06:16:05.832Z,28.2
2018-02-05T06:18:13.383Z,28
2018-02-05T06:20:08.450Z,28
2018-02-05T06:22:05.785Z,28
2018-02-05T06:24:05.732Z,27.9
2018-02-05T06:26:08.046Z,28
2018-02-05T06:28:05.803Z,28
2018-02-05T06:30:08.099Z,28
2018-02-05T06:32:06.088Z,27.9
2018-02-05T06:34:05.854Z,28
2018-02-05T06:36:05.664Z,28
2018-02-05T06:38:05.774Z,28
2018-02-05T06:40:05.097Z,28
2018-02-05T06:42:08.394Z,27.9
2018-02-05T06:44:11.129Z,28
2018-02-05T06:46:05.904Z,27.8
2018-02-05T06:48:05.793Z,27.8
2018-02-05T06:50:05.156Z,27.9
2018-02-05T06:52:05.943Z,27.7
2018-02-05T06:54:05.980Z,27.7
2018-02-05T06:56:05.768Z,27.8
2018-02-05T06:58:05.509Z,27.8
2018-02-05T07:00:05.284Z,27.8
2018-02-05T07:02:05.138Z,27.8
2018-02-05T07:04:05.925Z,27.8
2018-02-05T07:06:08.231Z,27.8
2018-02-05T07:08:05.825Z,27.8
2018-02-05T07:10:05.652Z,27.7
2018-02-05T07:12:10.484Z,27.7
2018-02-05T07:14:05.301Z,27.7
2018-02-05T07:16:05.591Z,27.8
2018-02-05T07:18:05.584Z,27.7
2018-02-05T07:20:05.408Z,27.7
2018-02-05T07:22:05.151Z,27.8
2018-02-05T07:24:08.468Z,27.8
2018-02-05T07:26:05.546Z,27.8
2018-02-05T07:28:05.963Z,27.8
2018-02-05T07:30:05.753Z,27.8
2018-02-05T07:32:06.027Z,27.8
2018-02-05T07:34:08.316Z,27.6
2018-02-05T07:36:07.666Z,27.8
2018-02-05T07:38:05.736Z,27.6
2018-02-05T07:40:07.619Z,27.8
2018-02-05T07:42:08.026Z,27.8
2018-02-05T07:44:06.001Z,27.6
2018-02-05T07:46:05.776Z,27.7
2018-02-05T07:48:05.257Z,27.8
2018-02-05T07:50:05.823Z,27.6
2018-02-05T07:52:05.593Z,27.8
2018-02-05T07:54:06.071Z,27.7
2018-02-05T07:56:06.162Z,27.5
2018-02-05T07:58:08.521Z,27.8
2018-02-05T08:00:05.223Z,27.7
2018-02-05T08:02:08.711Z,27.7
2018-02-05T08:04:05.551Z,27.7
2018-02-05T08:06:07.928Z,27.8
2018-02-05T08:08:05.781Z,27.8
2018-02-05T08:10:05.574Z,27.7
2018-02-05T08:12:05.303Z,27.7
2018-02-05T08:14:12.643Z,27.6
2018-02-05T08:16:08.021Z,27.7
2018-02-05T08:18:05.575Z,27.6
2018-02-05T08:20:05.360Z,27.6
2018-02-05T08:22:05.125Z,27.6
2018-02-05T08:24:10.977Z,27.6
2018-02-05T08:26:06.027Z,27.5
2018-02-05T08:28:05.756Z,27.7
2018-02-05T08:30:08.850Z,27.5
2018-02-05T08:32:05.635Z,27.5
2018-02-05T08:34:05.387Z,27.7
2018-02-05T08:36:05.110Z,27.5
2018-02-05T08:38:06.217Z,27.4
2018-02-05T08:40:05.207Z,27.4
2018-02-05T08:42:13.538Z,27.4
2018-02-05T08:44:05.647Z,27.4
2018-02-05T08:46:05.643Z,27.4
2018-02-05T08:48:05.397Z,27.4
2018-02-05T08:50:07.939Z,27.4
2018-02-05T08:52:05.862Z,27.4
2018-02-05T08:54:08.657Z,27.3
2018-02-05T08:56:05.697Z,27.4
2018-02-05T08:58:10.544Z,27.4
2018-02-05T09:00:07.880Z,27.4
2018-02-05T09:02:08.396Z,27.3
2018-02-05T09:04:07.685Z,27.4
2018-02-05T09:06:08.516Z,27.4
2018-02-05T09:08:05.247Z,27.4
2018-02-05T09:10:07.531Z,27.6
2018-02-05T09:12:05.861Z,27.7
2018-02-05T09:14:10.770Z,28
2018-02-05T09:16:05.548Z,28
2018-02-05T09:18:08.312Z,28
2018-02-05T09:20:05.112Z,28
2018-02-05T09:22:05.870Z,28
2018-02-05T09:24:05.578Z,28
2018-02-05T09:26:05.443Z,28
2018-02-05T09:28:07.726Z,28
2018-02-05T09:30:05.632Z,28.2
2018-02-05T09:32:05.393Z,28.2
2018-02-05T09:34:06.220Z,28.2
2018-02-05T09:36:05.137Z,33.5
2018-02-05T09:38:08.426Z,33.4
2018-02-05T09:40:07.752Z,33.5
2018-02-05T09:42:08.113Z,33.5
2018-02-05T09:44:05.939Z,33.5
2018-02-05T09:46:05.229Z,33.6
2018-02-05T09:48:10.581Z,33.6
2018-02-05T09:50:05.882Z,33.6
2018-02-05T09:52:05.634Z,33.8
2018-02-05T09:54:05.391Z,33.8
2018-02-05T09:56:05.521Z,33.7
2018-02-05T09:58:05.289Z,34
2018-02-05T10:00:11.078Z,33.9
2018-02-05T10:02:05.916Z,33.9
2018-02-05T10:04:05.271Z,34
2018-02-05T10:06:05.606Z,33.6
2018-02-05T10:08:05.979Z,33.8
2018-02-05T10:10:05.756Z,33.7
2018-02-05T10:12:08.571Z,33.8
2018-02-05T10:14:05.731Z,33.8
2018-02-05T10:16:05.678Z,33.7
2018-02-05T10:18:05.623Z,33.8
2018-02-05T10:20:05.736Z,33.9
2018-02-05T10:22:05.708Z,33.7
2018-02-05T10:24:05.449Z,33.9
2018-02-05T10:26:05.236Z,33.9
2018-02-05T10:28:08.557Z,33.9
2018-02-05T10:30:05.349Z,33.9
2018-02-05T10:32:07.983Z,33.7
2018-02-05T10:34:10.784Z,33.7
2018-02-05T10:36:05.552Z,34
2018-02-05T10:38:05.393Z,34
2018-02-05T10:40:05.137Z,34
2018-02-05T10:42:05.878Z,34
2018-02-05T10:44:05.973Z,33.9
2018-02-05T10:46:15.842Z,33.7
2018-02-05T10:48:07.819Z,34
2018-02-05T10:50:08.100Z,34
2018-02-05T10:52:05.412Z,33.8
2018-02-05T10:54:05.158Z,33.8
2018-02-05T10:56:08.746Z,33.8
2018-02-05T10:58:05.502Z,33.8
2018-02-05T11:00:08.273Z,34
2018-02-05T11:02:06.007Z,33.8
2018-02-05T11:04:08.291Z,33.8
2018-02-05T11:06:05.981Z,33.8
2018-02-05T11:08:05.985Z,33.7
2018-02-05T11:10:05.801Z,33.8
2018-02-05T11:12:05.118Z,33.9
2018-02-05T11:14:05.864Z,33.7
2018-02-05T11:16:07.819Z,33.7
2018-02-05T11:18:05.857Z,33.9
2018-02-05T11:20:06.029Z,33.7
2018-02-05T11:22:08.284Z,34
2018-02-05T11:24:05.043Z,33.7
2018-02-05T11:26:06.082Z,33.7
2018-02-05T11:28:05.794Z,33.7
2018-02-05T11:30:05.041Z,33.7
2018-02-05T11:32:10.981Z,33.7
2018-02-05T11:34:05.731Z,33.7
2018-02-05T11:36:10.629Z,32.2
2018-02-05T11:38:05.785Z,32.2
2018-02-05T11:40:08.036Z,33
2018-02-05T11:42:05.855Z,33
2018-02-05T11:44:11.230Z,33.5
2018-02-05T11:46:05.552Z,33.5
2018-02-05T11:48:05.347Z,33.6
2018-02-05T11:50:05.638Z,33.6
2018-02-05T11:52:07.962Z,33.7
2018-02-05T11:54:05.763Z,33.7
2018-02-05T11:56:05.935Z,33.7
2018-02-05T11:58:05.208Z,33.7
2018-02-05T12:00:05.083Z,33.6
2018-02-05T12:02:08.473Z,33.6
2018-02-05T12:04:05.244Z,33.7
2018-02-05T12:06:05.514Z,33.7
2018-02-05T12:08:05.382Z,33.9
2018-02-05T12:10:05.258Z,33.7
2018-02-05T12:12:08.514Z,33.7
2018-02-05T12:14:05.600Z,33.7
2018-02-05T12:16:05.411Z,33.7
2018-02-05T12:18:05.370Z,33.7
2018-02-05T12:20:05.595Z,33.7
2018-02-05T12:22:05.403Z,33.7
2018-02-05T12:24:05.192Z,33.7
2018-02-05T12:26:06.022Z,33.7
2018-02-05T12:28:05.802Z,33.7
2018-02-05T12:30:05.572Z,33.9
2018-02-05T12:32:05.630Z,33.6
2018-02-05T12:34:08.427Z,33.6
2018-02-05T12:36:05.182Z,33.6
2018-02-05T12:38:05.749Z,33.6
2018-02-05T12:40:06.047Z,33.6
2018-02-05T12:42:08.338Z,33.6
2018-02-05T12:44:05.336Z,33.6
2018-02-05T12:46:05.083Z,33.6
2018-02-05T12:48:05.861Z,33.6
2018-02-05T12:50:10.885Z,33.6
2018-02-05T12:52:05.629Z,33.6
2018-02-05T12:54:05.397Z,33.6
2018-02-05T12:56:05.185Z,33.6
2018-02-05T12:58:05.994Z,33.8
2018-02-05T13:00:05.995Z,33.7
2018-02-05T13:02:08.271Z,33.9
2018-02-05T13:04:05.140Z,33.6
2018-02-05T13:06:05.996Z,33.6
2018-02-05T13:08:05.725Z,33.5
2018-02-05T13:10:05.529Z,33.6
2018-02-05T13:12:05.808Z,33.7
2018-02-05T13:14:08.363Z,33.6
2018-02-05T13:16:05.230Z,33.7
2018-02-05T13:18:05.268Z,33.6
2018-02-05T13:20:05.618Z,33.8
2018-02-05T13:22:10.547Z,33.6
2018-02-05T13:24:05.471Z,33.7
2018-02-05T13:26:05.370Z,33.7
2018-02-05T13:28:05.394Z,33.6
2018-02-05T13:30:05.436Z,33.5
2018-02-05T13:32:05.841Z,33.4
2018-02-05T13:34:08.163Z,33.4
2018-02-05T13:36:05.469Z,33.4
2018-02-05T13:38:05.767Z,33.3
2018-02-05T13:40:13.295Z,33.2
2018-02-05T13:42:06.009Z,33.3
2018-02-05T13:44:06.012Z,33.2
2018-02-05T13:46:05.793Z,33.3
2018-02-05T13:48:05.134Z,33.3
2018-02-05T13:50:06.240Z,33.2
2018-02-05T13:52:06.019Z,33.3
2018-02-05T13:54:11.025Z,33.3
2018-02-05T13:56:08.158Z,33.3
2018-02-05T13:58:05.882Z,33.3
2018-02-05T14:00:08.231Z,33.3
2018-02-05T14:02:06.006Z,33.3
2018-02-05T14:04:05.818Z,33.3
2018-02-05T14:06:05.621Z,33.3
2018-02-05T14:08:05.424Z,33.3
2018-02-05T14:10:05.134Z,33.4
2018-02-05T14:12:05.871Z,33.2
2018-02-05T14:14:05.643Z,33.1
2018-02-05T14:16:11.421Z,33
2018-02-05T14:18:08.093Z,33.2
2018-02-05T14:20:06.213Z,33.1
2018-02-05T14:22:08.837Z,33.1
2018-02-05T14:24:05.593Z,33.1
2018-02-05T14:26:08.707Z,33.1
2018-02-05T14:28:05.453Z,33.1
2018-02-05T14:30:05.223Z,33.1
2018-02-05T14:32:06.107Z,33.2
2018-02-05T14:34:05.827Z,33.1
2018-02-05T14:36:05.589Z,33.1
2018-02-05T14:38:05.717Z,33.2
2018-02-05T14:40:05.505Z,33.2
2018-02-05T14:42:05.252Z,33.2
2018-02-05T14:44:05.557Z,33.2
2018-02-05T14:46:05.939Z,33.2
2018-02-05T14:48:05.823Z,33.2
2018-02-05T14:50:10.644Z,33.2
2018-02-05T14:52:05.962Z,33.2
2018-02-05T14:54:05.563Z,33.2
2018-02-05T14:56:06.033Z,33.2
2018-02-05T14:58:05.068Z,33.2
2018-02-05T15:00:05.309Z,33.2
2018-02-05T15:02:05.167Z,33.2
2018-02-05T15:04:08.422Z,33
2018-02-05T15:06:05.186Z,33.1
2018-02-05T15:08:05.157Z,33
2018-02-05T15:10:05.901Z,33.1
2018-02-05T15:12:05.159Z,32.3
2018-02-05T15:14:05.907Z,32.1
2018-02-05T15:16:05.709Z,31.9
2018-02-05T15:18:05.362Z,31.8
2018-02-05T15:20:05.216Z,31.7
2018-02-05T15:22:05.037Z,31.9
2018-02-05T15:24:05.781Z,31.8
2018-02-05T15:26:05.907Z,32
2018-02-05T15:28:05.204Z,32
2018-02-05T15:30:05.938Z,32
2018-02-05T15:32:05.758Z,32.1
2018-02-05T15:34:05.568Z,32
2018-02-05T15:36:05.592Z,32.1
2018-02-05T15:38:05.386Z,32
2018-02-05T15:40:05.168Z,32
2018-02-05T15:42:06.053Z,32
2018-02-05T15:44:08.108Z,32
2018-02-05T15:46:05.971Z,32.1
2018-02-05T15:48:05.771Z,32
2018-02-05T15:50:05.521Z,32
2018-02-05T15:52:05.321Z,32
2018-02-05T15:54:05.187Z,32.1
2018-02-05T15:56:08.804Z,32
2018-02-05T15:58:05.582Z,32
2018-02-05T16:00:05.283Z,32
2018-02-05T16:02:08.907Z,32
2018-02-05T16:04:05.813Z,32
2018-02-05T16:06:05.683Z,32
2018-02-05T16:08:05.857Z,32
2018-02-05T16:10:05.681Z,32
2018-02-05T16:12:05.974Z,32
2018-02-05T16:14:05.770Z,32
2018-02-05T16:16:05.581Z,31.8
2018-02-05T16:18:05.757Z,32
2018-02-05T16:20:05.840Z,31.8
2018-02-05T16:22:05.655Z,31.9
2018-02-05T16:24:07.987Z,31.8
2018-02-05T16:26:08.153Z,31.9
2018-02-05T16:28:06.049Z,31.9
2018-02-05T16:30:06.104Z,31.9
2018-02-05T16:32:05.885Z,32
2018-02-05T16:34:05.745Z,31.9
2018-02-05T16:36:05.483Z,31.8
2018-02-05T16:38:08.079Z,31.9
2018-02-05T16:40:08.402Z,31.8
2018-02-05T16:42:05.354Z,31.8
2018-02-05T16:44:05.674Z,31.9
2018-02-05T16:46:08.875Z,31.8
2018-02-05T16:48:11.195Z,31.8
2018-02-05T16:50:05.860Z,31.8
2018-02-05T16:52:05.824Z,31.8
2018-02-05T16:54:06.082Z,31.8
2018-02-05T16:56:11.374Z,31.8
2018-02-05T16:58:07.878Z,31.6
2018-02-05T17:00:08.558Z,31.6
2018-02-05T17:02:08.233Z,31.8
2018-02-05T17:04:05.310Z,31.8
2018-02-05T17:06:05.257Z,31.6
2018-02-05T17:08:05.539Z,31.6
2018-02-05T17:10:13.051Z,31.6
2018-02-05T17:12:11.041Z,31.6
2018-02-05T17:14:06.268Z,31.6
2018-02-05T17:16:05.828Z,31.6
2018-02-05T17:18:06.410Z,31.6
2018-02-05T17:20:05.307Z,31.5
2018-02-05T17:22:05.176Z,31.6
2018-02-05T17:24:06.024Z,31.6
2018-02-05T17:26:05.874Z,31.5
2018-02-05T17:28:10.804Z,31.6
2018-02-05T17:30:05.903Z,31.6
2018-02-05T17:32:08.687Z,31.7
2018-02-05T17:34:06.156Z,31.7
2018-02-05T17:36:05.143Z,31.7
2018-02-05T17:38:06.229Z,31.6
2018-02-05T17:40:05.677Z,31.6
2018-02-05T17:42:05.490Z,31.6
2018-02-05T17:44:05.431Z,31.8
2018-02-05T17:46:05.263Z,32
2018-02-05T17:48:06.024Z,32
2018-02-05T17:50:05.489Z,32
2018-02-05T17:52:05.232Z,32
2018-02-05T17:54:05.508Z,31.9
2018-02-05T17:56:05.949Z,31.3
2018-02-05T17:58:05.894Z,31.5
2018-02-05T18:00:06.673Z,31.6
2018-02-05T18:02:06.105Z,31.7
2018-02-05T18:04:05.892Z,31.9
2018-02-05T18:06:06.245Z,32
2018-02-05T18:08:09.059Z,31.8
2018-02-05T18:10:05.077Z,31.8
2018-02-05T18:12:05.866Z,31.8
2018-02-05T18:14:13.160Z,31.5
2018-02-05T18:16:06.060Z,31.6
2018-02-05T18:18:08.006Z,31.6
2018-02-05T18:20:13.416Z,31.6
2018-02-05T18:22:05.247Z,31.5
2018-02-05T18:24:07.694Z,31.6
2018-02-05T18:26:08.242Z,31.5
2018-02-05T18:28:06.413Z,31.6
2018-02-05T18:30:05.216Z,31.6
2018-02-05T18:32:06.227Z,31.6
2018-02-05T18:34:06.060Z,31.6
2018-02-05T18:36:05.877Z,31.4
2018-02-05T18:38:08.489Z,31
2018-02-05T18:40:05.404Z,31.3
2018-02-05T18:42:05.338Z,31.3
2018-02-05T18:44:10.506Z,31.3
2018-02-05T18:46:06.265Z,31.3
2018-02-05T18:48:06.092Z,31.3
2018-02-05T18:50:08.388Z,31.2
2018-02-05T18:52:05.127Z,31.3
2018-02-05T18:54:05.973Z,31.2
2018-02-05T18:56:06.030Z,31.2
2018-02-05T18:58:05.423Z,31.2
2018-02-05T19:00:05.206Z,31.2
2018-02-05T19:02:13.855Z,31.2
2018-02-05T19:04:10.681Z,31.2
2018-02-05T19:06:05.413Z,31.2
2018-02-05T19:08:07.673Z,31.2
2018-02-05T19:10:05.477Z,31.2
2018-02-05T19:12:08.286Z,31.2
2018-02-05T19:14:06.101Z,31.2
2018-02-05T19:16:08.371Z,31.2
2018-02-05T19:18:10.873Z,31.2
2018-02-05T19:20:06.001Z,31.3
2018-02-05T19:22:05.290Z,31.2
2018-02-05T19:24:06.038Z,31.1
2018-02-05T19:26:05.328Z,31.1
2018-02-05T19:28:05.057Z,31.1
2018-02-05T19:30:05.781Z,31.2
2018-02-05T19:32:05.569Z,31.2
2018-02-05T19:34:05.885Z,30.9
2018-02-05T19:36:05.613Z,30.9
2018-02-05T19:38:05.389Z,31.2
2018-02-05T19:40:05.172Z,30.9
2018-02-05T19:42:08.117Z,30.9
2018-02-05T19:44:05.898Z,30.9
2018-02-05T19:46:05.645Z,30.9
2018-02-05T19:48:05.430Z,30.9
2018-02-05T19:50:05.320Z,30.8
2018-02-05T19:52:05.597Z,30.9
2018-02-05T19:54:05.371Z,30.9
2018-02-05T19:56:05.363Z,30.9
2018-02-05T19:58:06.589Z,30.9
2018-02-05T20:00:20.658Z,30.8
2018-02-05T20:02:07.138Z,30.9
2018-02-05T20:04:05.094Z,30.8
2018-02-05T20:06:06.192Z,30.9
2018-02-05T20:08:10.193Z,30.9
2018-02-05T20:10:05.981Z,30.9
2018-02-05T20:12:08.290Z,30.9
2018-02-05T20:14:05.118Z,30.9
2018-02-05T20:16:05.885Z,30.9
2018-02-05T20:18:05.842Z,30.9
2018-02-05T20:20:11.032Z,30.9
2018-02-05T20:22:05.797Z,30.9
2018-02-05T20:24:05.125Z,30.9
2018-02-05T20:26:11.058Z,30.9
2018-02-05T20:28:05.996Z,30.9
2018-02-05T20:30:07.306Z,30.8
2018-02-05T20:32:05.393Z,30.9
2018-02-05T20:34:05.489Z,30.9
2018-02-05T20:36:05.276Z,30.9
2018-02-05T20:38:06.077Z,30.9
2018-02-05T20:40:05.922Z,30.6
2018-02-05T20:42:08.418Z,30.9
2018-02-05T20:44:05.212Z,30.9
2018-02-05T20:46:11.016Z,30.9
2018-02-05T20:48:05.921Z,30.8
2018-02-05T20:50:05.724Z,30.9
2018-02-05T20:52:05.482Z,30.9
2018-02-05T20:54:05.228Z,30.9
2018-02-05T20:56:08.107Z,30.6
2018-02-05T20:58:05.865Z,30.6
2018-02-05T21:00:05.710Z,30.6
2018-02-05T21:02:05.514Z,30.6
2018-02-05T21:04:05.315Z,30.6
2018-02-05T21:06:05.054Z,30.6
2018-02-05T21:08:05.863Z,30.5
2018-02-05T21:10:05.613Z,30.5
2018-02-05T21:12:05.436Z,30.6
2018-02-05T21:14:05.843Z,30.6
2018-02-05T21:16:05.656Z,30.6
2018-02-05T21:18:05.998Z,30.6
2018-02-05T21:20:05.868Z,30.6
2018-02-05T21:22:05.634Z,30.6
2018-02-05T21:24:05.396Z,30.6
2018-02-05T21:26:05.401Z,30.6
2018-02-05T21:28:10.326Z,30.5
2018-02-05T21:30:10.108Z,30.5
2018-02-05T21:32:08.417Z,30.5
2018-02-05T21:34:07.740Z,30.6
2018-02-05T21:36:05.496Z,30.5
2018-02-05T21:38:05.265Z,30.4
2018-02-05T21:40:05.312Z,30.5
2018-02-05T21:42:05.654Z,30.2
2018-02-05T21:44:11.331Z,30.5
2018-02-05T21:46:13.196Z,30.3
2018-02-05T21:48:05.937Z,30.5
2018-02-05T21:50:05.518Z,30.5
2018-02-05T21:52:05.349Z,30.5
2018-02-05T21:54:05.168Z,30.5
2018-02-05T21:56:05.887Z,30.4
2018-02-05T21:58:05.669Z,30.5
2018-02-05T22:00:05.456Z,30.5
2018-02-05T22:02:05.349Z,30.5
2018-02-05T22:04:05.324Z,30.2
2018-02-05T22:06:07.889Z,30.6
2018-02-05T22:08:05.314Z,30.6
2018-02-05T22:10:05.068Z,30.3
2018-02-05T22:12:05.796Z,30.5
2018-02-05T22:14:08.436Z,30.3
2018-02-05T22:16:05.386Z,30.2
2018-02-05T22:18:05.431Z,30.3
2018-02-05T22:20:05.158Z,30.3
2018-02-05T22:22:08.547Z,30.3
2018-02-05T22:24:05.296Z,30.2
2018-02-05T22:26:05.056Z,30.4
2018-02-05T22:28:05.778Z,30.3
2018-02-05T22:30:08.069Z,30.4
2018-02-05T22:32:08.423Z,30.2
2018-02-05T22:34:05.170Z,30.3
2018-02-05T22:36:05.551Z,30.2
2018-02-05T22:38:05.654Z,30.3
2018-02-05T22:40:05.946Z,30.2
2018-02-05T22:42:05.247Z,30.2
2018-02-05T22:44:06.363Z,30.3
2018-02-05T22:46:08.183Z,30.3
2018-02-05T22:48:05.529Z,30.2
2018-02-05T22:50:07.808Z,30.2
2018-02-05T22:52:08.155Z,30.3
2018-02-05T22:54:05.921Z,30.3
2018-02-05T22:56:06.132Z,30.2
2018-02-05T22:58:13.477Z,30.3
2018-02-05T23:00:05.344Z,30.3
2018-02-05T23:02:05.228Z,30.4
2018-02-05T23:04:06.927Z,30.5
2018-02-05T23:06:05.955Z,30.7
2018-02-05T23:08:05.223Z,30.4
2018-02-05T23:10:06.030Z,30.6
2018-02-05T23:12:05.796Z,30.6
2018-02-05T23:14:05.835Z,30.6
2018-02-05T23:16:05.586Z,30.6
2018-02-05T23:18:05.548Z,30.7
2018-02-05T23:20:10.502Z,30.7
2018-02-05T23:22:05.237Z,30.7
2018-02-05T23:24:05.558Z,30.7
2018-02-05T23:26:07.873Z,30.6
2018-02-05T23:28:05.617Z,30.6
2018-02-05T23:30:05.347Z,30.6
2018-02-05T23:32:05.735Z,30.6
2018-02-05T23:34:06.472Z,30.7
2018-02-05T23:36:05.272Z,30.6
2018-02-05T23:38:06.251Z,30.6
2018-02-05T23:40:05.554Z,30.6
2018-02-05T23:42:07.893Z,30.6
2018-02-05T23:44:05.717Z,30.6
2018-02-05T23:46:05.486Z,30.6
2018-02-05T23:48:05.335Z,30.6
2018-02-05T23:50:05.125Z,30.6
2018-02-05T23:52:05.946Z,30.7
2018-02-05T23:54:05.795Z,30.7
2018-02-05T23:56:05.533Z,30.7
2018-02-05T23:58:05.341Z,30.6
